Time;durP1;ratioP1;P1;durP2;ratioP2;P2;SDS_P1;SDS_P2;PMS_P1;PMS_P2;Temp;Humidity;BMP_temperature;BMP_pressure;BME280_temperature;BME280_humidity;BME280_pressure;Samples;Min_cycle;Max_cycle;Signal;HPM_P1;HPM_P2
2022/09/12 00:01:10;;;;;;;14.63;9.40;;;;;;;12.15;89.39;101626.97;4998126;28;20424;-88
2022/09/12 00:03:36;;;;;;;12.48;9.40;;;;;;;12.15;89.36;101632.41;5002599;28;20030;-88
2022/09/12 00:06:07;;;;;;;14.20;8.43;;;;;;;12.12;88.97;101621.72;5005536;28;20080;-88
2022/09/12 00:08:33;;;;;;;11.35;8.68;;;;;;;12.14;89.19;101618.91;4986021;28;20057;-87
2022/09/12 00:11:03;;;;;;;13.07;9.27;;;;;;;12.12;88.92;101624.44;4995884;28;20454;-87
2022/09/12 00:13:29;;;;;;;19.42;11.35;;;;;;;12.08;88.59;101608.41;5007166;28;20048;-87
2022/09/12 00:15:54;;;;;;;15.30;10.45;;;;;;;12.10;89.25;101620.06;4999319;28;20109;-87
2022/09/12 00:18:19;;;;;;;16.92;10.65;;;;;;;12.06;88.62;101616.66;5003206;28;20069;-86
2022/09/12 00:20:46;;;;;;;15.35;10.25;;;;;;;12.00;88.66;101609.78;5005320;28;20034;-87
2022/09/12 00:23:13;;;;;;;17.00;10.30;;;;;;;12.00;88.10;101612.50;5004645;28;20085;-87
2022/09/12 00:25:47;;;;;;;20.17;11.32;;;;;;;12.02;88.96;101615.13;4982327;28;20512;-87
2022/09/12 00:28:15;;;;;;;19.10;10.45;;;;;;;11.98;88.53;101613.56;4988653;28;20034;-87
2022/09/12 00:30:45;;;;;;;19.63;10.70;;;;;;;11.91;88.89;101601.31;4981642;28;20588;-87
2022/09/12 00:33:11;;;;;;;13.55;9.77;;;;;;;11.94;88.70;101606.59;4992482;28;20039;-87
2022/09/12 00:35:44;;;;;;;14.90;9.77;;;;;;;11.92;88.21;101605.78;5010835;28;20125;-87
2022/09/12 00:38:11;;;;;;;18.65;11.05;;;;;;;11.84;88.90;101606.28;5003027;28;20034;-88
2022/09/12 00:40:37;;;;;;;20.02;11.25;;;;;;;11.82;88.73;101596.44;4998882;28;20081;-88
2022/09/12 00:43:02;;;;;;;21.50;11.27;;;;;;;11.82;89.08;101602.81;5004718;28;20589;-87
2022/09/12 00:45:29;;;;;;;19.85;11.23;;;;;;;11.79;89.64;101602.97;4991953;28;20096;-89
2022/09/12 00:47:59;;;;;;;18.55;11.80;;;;;;;11.74;90.79;101597.81;4972707;28;20057;-87
2022/09/12 00:50:25;;;;;;;17.63;10.10;;;;;;;11.74;90.46;101599.66;4988987;28;20452;-87
2022/09/12 00:52:56;;;;;;;15.10;9.85;;;;;;;11.72;89.69;101594.31;4980670;28;20026;-87
2022/09/12 00:55:31;;;;;;;13.50;9.48;;;;;;;11.77;89.49;101596.75;4995975;28;20481;-87
2022/09/12 00:58:00;;;;;;;14.90;9.43;;;;;;;11.73;90.12;101590.63;4988070;28;20494;-87
2022/09/12 01:00:27;;;;;;;15.55;10.60;;;;;;;11.70;89.74;101585.38;5000988;28;20034;-87
2022/09/12 01:02:57;;;;;;;15.30;8.90;;;;;;;11.66;89.37;101589.28;4988447;28;20046;-87
2022/09/12 01:05:25;;;;;;;13.88;9.30;;;;;;;11.64;89.03;101585.75;5004652;28;20054;-87
2022/09/12 01:07:51;;;;;;;13.65;9.40;;;;;;;11.66;89.14;101582.97;4987928;28;20034;-87
2022/09/12 01:10:18;;;;;;;17.40;9.93;;;;;;;11.66;89.11;101589.28;4981562;28;20052;-87
2022/09/12 01:12:45;;;;;;;16.55;11.85;;;;;;;11.62;89.80;101576.81;5007641;28;20180;-87
2022/09/12 01:15:11;;;;;;;21.05;10.93;;;;;;;11.59;90.33;101579.75;5002361;28;20120;-87
2022/09/12 01:17:57;;;;;;;18.77;11.45;;;;;;;11.60;90.16;101572.44;4997181;28;20478;-87
2022/09/12 01:21:04;;;;;;;20.65;10.73;;;;;;;11.56;89.85;101570.88;5005800;28;20052;-87
2022/09/12 01:24:07;;;;;;;16.17;11.10;;;;;;;11.52;90.91;101572.94;5005485;28;20030;-87
2022/09/12 01:26:45;;;;;;;18.25;11.88;;;;;;;11.46;91.25;101573.31;5006115;28;20045;-87
2022/09/12 01:29:48;;;;;;;15.77;11.18;;;;;;;11.46;90.67;101568.75;5008455;28;20057;-87
2022/09/12 01:32:41;;;;;;;15.93;10.32;;;;;;;11.45;90.58;101572.44;4988102;28;20046;-87
2022/09/12 01:35:22;;;;;;;16.58;11.25;;;;;;;11.43;90.17;101566.25;4988723;28;20038;-87
2022/09/12 01:37:55;;;;;;;15.45;11.38;;;;;;;11.40;91.23;101558.25;4988023;28;20065;-87
2022/09/12 01:40:37;;;;;;;25.27;12.68;;;;;;;11.35;91.01;101552.22;5001624;28;20486;-87
2022/09/12 01:43:36;;;;;;;17.40;10.75;;;;;;;11.40;90.39;101557.38;4971714;28;20092;-87
2022/09/12 01:46:11;;;;;;;14.88;9.98;;;;;;;11.39;90.23;101559.25;4987941;28;20034;-87
2022/09/12 01:49:06;;;;;;;24.58;16.23;;;;;;;11.43;91.45;101551.75;4988164;28;20121;-87
2022/09/12 01:51:41;;;;;;;21.77;14.52;;;;;;;11.41;90.55;101554.53;4959401;28;20547;-87
2022/09/12 01:54:20;;;;;;;18.95;11.65;;;;;;;11.42;89.94;101553.59;4989731;28;20038;-87
2022/09/12 01:56:48;;;;;;;20.35;12.80;;;;;;;11.41;90.17;101556.41;4971993;28;20041;-87
2022/09/12 01:59:20;;;;;;;20.75;12.65;;;;;;;11.36;89.70;101540.34;4992286;28;20493;-86
2022/09/12 02:02:22;;;;;;;22.13;12.85;;;;;;;11.40;89.87;101541.91;4987318;28;20509;-87
2022/09/12 02:04:54;;;;;;;19.08;11.70;;;;;;;11.37;90.33;101536.66;4985887;28;20065;-87
2022/09/12 02:07:26;;;;;;;21.98;13.73;;;;;;;11.36;91.19;101531.31;4987564;28;20026;-87
2022/09/12 02:10:23;;;;;;;23.35;12.73;;;;;;;11.37;90.17;101528.47;4971606;28;20477;-87
2022/09/12 02:12:55;;;;;;;22.88;12.90;;;;;;;11.32;90.88;101527.91;4989435;28;20042;-87
2022/09/12 02:15:26;;;;;;;18.05;11.52;;;;;;;11.30;90.55;101527.13;5002617;28;20038;-87
2022/09/12 02:17:56;;;;;;;22.52;13.65;;;;;;;11.28;90.70;101525.47;4987523;28;20396;-87
2022/09/12 02:20:27;;;;;;;21.45;12.13;;;;;;;11.28;90.34;101533.66;4986760;28;20548;-87
2022/09/12 02:22:55;;;;;;;17.83;10.93;;;;;;;11.26;89.75;101521.97;4995410;28;20034;-87
2022/09/12 02:25:21;;;;;;;19.83;12.13;;;;;;;11.26;90.00;101525.59;5001549;28;20072;-86
2022/09/12 02:27:55;;;;;;;17.27;12.35;;;;;;;11.24;90.70;101528.41;5002966;28;20042;-86
2022/09/12 02:30:22;;;;;;;19.95;11.48;;;;;;;11.24;90.09;101527.53;4989708;28;20449;-87
2022/09/12 02:33:10;;;;;;;17.05;11.48;;;;;;;11.24;90.61;101530.25;4988349;28;20113;-87
2022/09/12 02:35:45;;;;;;;18.13;11.18;;;;;;;11.23;90.24;101534.81;4989750;28;20045;-87
2022/09/12 02:38:29;;;;;;;22.83;11.98;;;;;;;11.24;89.90;101531.13;4990121;28;20038;-87
2022/09/12 02:40:55;;;;;;;19.40;13.02;;;;;;;11.21;90.67;101525.00;5001475;28;20482;-87
2022/09/12 02:43:21;;;;;;;25.17;13.85;;;;;;;11.17;90.86;101529.75;4989240;28;20124;-87
2022/09/12 02:45:46;;;;;;;18.38;11.55;;;;;;;11.19;90.98;101527.84;4985879;28;20038;-87
2022/09/12 02:48:22;;;;;;;30.02;15.00;;;;;;;11.12;91.80;101521.03;4988575;28;20120;-87
2022/09/12 02:50:48;;;;;;;21.98;13.80;;;;;;;11.14;91.83;101524.50;4974553;28;20126;-87
2022/09/12 02:53:14;;;;;;;23.90;14.30;;;;;;;11.06;91.95;101507.81;4992390;28;20093;-87
2022/09/12 02:55:41;;;;;;;23.10;13.65;;;;;;;11.09;91.77;101510.31;4995847;28;20030;-86
2022/09/12 02:58:14;;;;;;;21.75;14.45;;;;;;;11.14;91.47;101515.47;5003217;28;20041;-87
2022/09/12 03:00:50;;;;;;;24.65;15.25;;;;;;;11.11;91.42;101511.09;5006054;28;20482;-87
2022/09/12 03:03:42;;;;;;;22.55;14.20;;;;;;;11.14;92.03;101513.63;5006624;28;20129;-87
2022/09/12 03:06:42;;;;;;;27.30;16.03;;;;;;;11.09;91.79;101507.59;5006861;28;20054;-87
2022/09/12 03:09:16;;;;;;;25.33;14.52;;;;;;;11.05;91.98;101497.00;5002520;28;20041;-86
2022/09/12 03:12:24;;;;;;;25.85;13.57;;;;;;;11.08;91.56;101500.41;5001073;28;20034;-87
2022/09/12 03:15:14;;;;;;;23.30;12.02;;;;;;;11.06;91.89;101499.63;4970336;28;20049;-87
2022/09/12 03:17:56;;;;;;;23.27;12.00;;;;;;;11.06;91.52;101496.91;4986977;28;20458;-87
2022/09/12 03:20:36;;;;;;;25.15;12.70;;;;;;;11.10;91.16;101497.59;4987076;28;20063;-87
2022/09/12 03:23:11;;;;;;;18.13;12.23;;;;;;;11.05;91.54;101492.44;5004235;28;20513;-87
2022/09/12 03:25:49;;;;;;;20.73;11.80;;;;;;;11.07;91.10;101492.34;5000934;28;20581;-87
2022/09/12 03:28:16;;;;;;;18.73;11.77;;;;;;;11.03;91.53;101488.94;4986524;28;20043;-87
2022/09/12 03:30:43;;;;;;;21.20;12.52;;;;;;;11.01;90.94;101479.13;4986627;28;20038;-86
2022/09/12 03:33:18;;;;;;;21.42;13.45;;;;;;;11.04;91.29;101493.41;4991920;28;20065;-87
2022/09/12 03:35:44;;;;;;;24.67;12.02;;;;;;;11.09;91.13;101498.53;5005784;28;20152;-87
2022/09/12 03:38:10;;;;;;;20.55;12.95;;;;;;;11.10;91.34;101495.75;5000296;28;20038;-86
2022/09/12 03:40:36;;;;;;;21.85;13.80;;;;;;;11.10;91.81;101483.97;5004337;28;20053;-87
2022/09/12 03:43:03;;;;;;;21.27;13.13;;;;;;;11.09;91.58;101485.81;4973534;28;20026;-87
2022/09/12 03:45:29;;;;;;;21.98;13.20;;;;;;;11.12;91.59;101487.47;4980039;28;20065;-87
2022/09/12 03:47:54;;;;;;;20.17;12.73;;;;;;;11.12;91.76;101480.16;5010951;28;20131;-87
2022/09/12 03:50:20;;;;;;;23.10;14.00;;;;;;;11.12;91.54;101495.63;5005458;28;20145;-87
2022/09/12 03:52:45;;;;;;;21.55;12.27;;;;;;;11.12;91.39;101491.06;4984545;28;20045;-87
2022/09/12 03:55:11;;;;;;;21.73;13.05;;;;;;;11.11;91.53;101485.72;4987882;28;20505;-86
2022/09/12 03:57:36;;;;;;;23.83;13.25;;;;;;;11.13;91.69;101486.50;4984842;28;20042;-87
2022/09/12 04:00:04;;;;;;;19.27;13.20;;;;;;;11.11;92.11;101485.72;5005994;28;20087;-87
2022/09/12 04:02:37;;;;;;;21.20;12.63;;;;;;;11.10;92.05;101473.09;4991538;28;20054;-87
2022/09/12 04:05:03;;;;;;;18.42;12.60;;;;;;;11.08;91.97;101470.44;4989842;28;20668;-87
2022/09/12 04:07:28;;;;;;;24.60;12.90;;;;;;;11.03;92.23;101458.09;4990234;28;20030;-87
2022/09/12 04:09:55;;;;;;;18.10;12.25;;;;;;;11.06;91.67;101461.53;4991481;28;20045;-87
2022/09/12 04:12:20;;;;;;;23.05;13.40;;;;;;;11.05;91.81;101470.66;4989697;28;20726;-87
2022/09/12 04:14:46;;;;;;;25.70;13.10;;;;;;;11.07;91.76;101470.56;4990874;28;20125;-87
2022/09/12 04:17:13;;;;;;;23.10;13.15;;;;;;;11.07;92.62;101470.56;4989366;28;20437;-88
2022/09/12 04:19:38;;;;;;;19.63;12.23;;;;;;;11.03;92.68;101467.16;4992652;28;20124;-87
2022/09/12 04:22:03;;;;;;;19.70;12.60;;;;;;;11.05;93.01;101469.75;4989200;28;20474;-87
2022/09/12 04:24:29;;;;;;;19.70;12.13;;;;;;;11.01;92.88;101460.06;4989452;28;20077;-87
2022/09/12 04:26:54;;;;;;;18.83;12.52;;;;;;;11.02;92.77;101461.81;4989287;28;20470;-87
2022/09/12 04:29:20;;;;;;;18.70;11.70;;;;;;;11.07;92.66;101463.25;4988650;28;20040;-87
2022/09/12 04:31:46;;;;;;;17.30;11.70;;;;;;;11.05;93.35;101457.06;4988929;28;20053;-87
2022/09/12 04:34:11;;;;;;;18.25;11.52;;;;;;;11.03;93.54;101449.94;4989058;28;20046;-87
2022/09/12 04:36:37;;;;;;;21.63;12.30;;;;;;;11.06;93.68;101456.06;4989789;28;20204;-87
2022/09/12 04:39:04;;;;;;;23.13;13.45;;;;;;;11.05;93.69;101448.88;4990380;28;20078;-88
2022/09/12 04:41:33;;;;;;;21.75;13.23;;;;;;;11.09;93.72;101458.56;5003687;28;20045;-87
2022/09/12 04:44:05;;;;;;;19.88;12.77;;;;;;;11.10;93.53;101457.63;4996703;28;20030;-87
2022/09/12 04:46:38;;;;;;;19.33;12.40;;;;;;;11.11;93.61;101453.91;4987827;28;20169;-87
2022/09/12 04:49:04;;;;;;;22.42;12.35;;;;;;;11.10;93.16;101444.00;4993639;28;20030;-87
2022/09/12 04:51:32;;;;;;;20.52;11.38;;;;;;;11.13;92.65;101449.22;4991421;28;20034;-88
2022/09/12 04:54:10;;;;;;;18.52;11.30;;;;;;;11.14;92.83;101452.81;5008098;28;20030;-87
2022/09/12 04:56:38;;;;;;;19.38;11.32;;;;;;;11.14;92.65;101453.69;5002307;28;20092;-87
2022/09/12 04:59:04;;;;;;;24.77;11.98;;;;;;;11.15;92.59;101450.03;4988459;28;20030;-88
2022/09/12 05:01:29;;;;;;;22.23;12.52;;;;;;;11.14;92.14;101444.66;4989857;28;20497;-88
2022/09/12 05:03:56;;;;;;;22.05;13.48;;;;;;;11.16;92.02;101451.78;4972170;28;20038;-88
2022/09/12 05:06:24;;;;;;;24.70;12.88;;;;;;;11.18;92.19;101449.81;5006817;28;20494;-87
2022/09/12 05:08:50;;;;;;;23.77;13.65;;;;;;;11.22;92.42;101450.50;4987621;28;20480;-88
2022/09/12 05:11:19;;;;;;;22.58;14.02;;;;;;;11.20;92.37;101453.31;5009300;28;20139;-87
2022/09/12 05:13:44;;;;;;;24.48;13.57;;;;;;;11.24;92.54;101456.72;4975271;28;20030;-87
2022/09/12 05:16:14;;;;;;;21.58;13.75;;;;;;;11.25;92.96;101458.47;5007591;28;20506;-88
2022/09/12 05:18:40;;;;;;;20.48;12.88;;;;;;;11.12;93.01;101441.19;4992135;28;20077;-87
2022/09/12 05:21:08;;;;;;;20.08;12.73;;;;;;;11.22;92.87;101447.75;4975952;28;20029;-87
2022/09/12 05:23:34;;;;;;;17.23;11.00;;;;;;;11.29;92.88;101462.75;4985907;28;20029;-88
2022/09/12 05:26:00;;;;;;;20.98;13.18;;;;;;;11.29;92.45;101462.75;4991804;28;20033;-87
2022/09/12 05:28:34;;;;;;;20.52;12.73;;;;;;;11.27;92.56;101453.78;4975072;28;20030;-87
2022/09/12 05:31:04;;;;;;;22.48;12.85;;;;;;;11.33;92.58;101464.28;4998153;28;20044;-87
2022/09/12 05:33:30;;;;;;;23.13;14.27;;;;;;;11.34;92.44;101457.00;4991772;28;20060;-88
2022/09/12 05:35:56;;;;;;;21.58;13.27;;;;;;;11.36;92.18;101457.75;4992126;28;20042;-88
2022/09/12 05:38:23;;;;;;;21.50;12.93;;;;;;;11.37;92.03;101454.91;4991593;28;20029;-88
2022/09/12 05:40:49;;;;;;;23.83;13.07;;;;;;;11.39;92.61;101455.72;4991374;28;20053;-88
2022/09/12 05:43:15;;;;;;;23.83;13.93;;;;;;;11.40;92.37;101457.44;4991059;28;20697;-88
2022/09/12 05:45:40;;;;;;;20.05;13.38;;;;;;;11.39;92.56;101454.84;4991821;28;20041;-88
2022/09/12 05:48:06;;;;;;;23.15;12.98;;;;;;;11.44;92.62;101460.84;5008060;28;20029;-88
2022/09/12 05:50:32;;;;;;;27.02;15.15;;;;;;;11.45;92.84;101463.47;5007960;28;20041;-88
2022/09/12 05:52:57;;;;;;;28.02;15.88;;;;;;;11.53;93.55;101467.53;4991081;28;20029;-88
2022/09/12 05:55:23;;;;;;;28.80;15.15;;;;;;;11.52;93.79;101454.88;5003008;28;20041;-87
2022/09/12 05:57:48;;;;;;;24.38;14.35;;;;;;;11.58;92.86;101463.53;4974569;28;20125;-88
2022/09/12 06:00:14;;;;;;;22.88;14.20;;;;;;;11.62;92.58;101466.94;4985442;28;20052;-88
2022/09/12 06:02:40;;;;;;;21.75;13.55;;;;;;;11.67;93.40;101472.94;4991590;28;20057;-88
2022/09/12 06:05:06;;;;;;;22.65;13.45;;;;;;;11.68;92.97;101471.97;4991077;28;20100;-88
2022/09/12 06:07:32;;;;;;;22.80;13.88;;;;;;;11.74;93.13;101479.72;5008961;28;20017;-88
2022/09/12 06:09:58;;;;;;;26.33;15.38;;;;;;;11.77;93.23;101476.81;4974762;28;20022;-88
2022/09/12 06:12:25;;;;;;;21.77;14.15;;;;;;;11.80;93.32;101479.31;4974160;28;20465;-88
2022/09/12 06:14:51;;;;;;;26.95;15.45;;;;;;;11.84;94.28;101475.41;4992243;28;20057;-88
2022/09/12 06:17:17;;;;;;;24.60;14.60;;;;;;;11.84;93.02;101472.69;4990847;28;20486;-88
2022/09/12 06:19:44;;;;;;;24.30;15.93;;;;;;;11.89;93.57;101475.13;5008897;28;20045;-87
2022/09/12 06:22:10;;;;;;;22.20;14.85;;;;;;;11.85;92.73;101474.47;5013541;28;20072;-88
2022/09/12 06:24:35;;;;;;;25.77;13.68;;;;;;;11.86;92.81;101470.75;5006634;28;20115;-88
2022/09/12 06:27:01;;;;;;;25.45;15.00;;;;;;;11.90;93.22;101471.44;4990236;28;20429;-87
2022/09/12 06:29:27;;;;;;;24.95;14.80;;;;;;;11.88;92.98;101467.91;5006363;28;20037;-88
2022/09/12 06:31:53;;;;;;;31.05;16.67;;;;;;;11.87;93.18;101460.72;5008426;28;20060;-88
2022/09/12 06:34:19;;;;;;;25.63;15.10;;;;;;;11.84;92.64;101455.47;5027149;28;20504;-88
2022/09/12 06:36:47;;;;;;;27.67;15.98;;;;;;;11.87;92.93;101463.44;5009671;28;20033;-88
2022/09/12 06:39:18;;;;;;;27.27;14.77;;;;;;;11.88;92.78;101468.78;5008111;28;20075;-88
2022/09/12 06:41:44;;;;;;;29.67;17.45;;;;;;;11.89;93.77;101464.22;5023082;28;20112;-88
2022/09/12 06:44:15;;;;;;;23.00;14.57;;;;;;;11.91;93.38;101467.72;5017585;28;20052;-88
2022/09/12 06:46:40;;;;;;;27.25;16.92;;;;;;;11.97;93.01;101470.03;5006029;28;20155;-87
2022/09/12 06:49:07;;;;;;;26.30;16.90;;;;;;;12.00;93.07;101464.38;5009093;28;20052;-88
2022/09/12 06:51:35;;;;;;;25.27;16.73;;;;;;;12.06;93.46;101469.38;5003627;28;20022;-88
2022/09/12 06:54:00;;;;;;;28.80;17.23;;;;;;;12.12;94.07;101471.69;5025880;28;20041;-88
2022/09/12 06:56:27;;;;;;;27.33;16.75;;;;;;;12.19;94.04;101461.25;5022857;28;20033;-88
2022/09/12 06:58:55;;;;;;;31.33;17.92;;;;;;;12.28;94.69;101466.06;4991376;28;20034;-89
2022/09/12 07:01:24;;;;;;;26.02;17.38;;;;;;;12.39;94.06;101466.16;5023699;28;20036;-88
2022/09/12 07:03:52;;;;;;;34.08;18.70;;;;;;;12.45;94.19;101473.03;4992405;28;20025;-88
2022/09/12 07:06:20;;;;;;;32.53;18.60;;;;;;;12.47;94.30;101469.25;5008299;28;20626;-88
2022/09/12 07:08:46;;;;;;;31.02;18.20;;;;;;;12.52;94.63;101461.59;5012481;28;20037;-88
2022/09/12 07:11:16;;;;;;;31.83;18.20;;;;;;;12.57;94.09;101461.28;4994436;28;20370;-88
2022/09/12 07:13:43;;;;;;;34.08;19.85;;;;;;;12.63;94.23;101458.09;5013146;28;20570;-87
2022/09/12 07:16:09;;;;;;;32.08;18.80;;;;;;;12.64;94.60;101457.13;4994062;28;20052;-88
2022/09/12 07:18:36;;;;;;;31.40;19.38;;;;;;;12.73;93.94;101461.06;5009116;28;20071;-88
2022/09/12 07:21:03;;;;;;;34.65;18.70;;;;;;;12.77;94.34;101463.44;5009411;28;20037;-88
2022/09/12 07:23:29;;;;;;;35.55;19.90;;;;;;;12.81;95.07;101452.31;5022294;28;20087;-88
2022/09/12 07:25:56;;;;;;;31.73;19.58;;;;;;;12.86;95.31;101448.25;5006048;28;20033;-88
2022/09/12 07:28:26;;;;;;;39.88;21.40;;;;;;;12.98;95.89;101455.56;4993467;28;20045;-88
2022/09/12 07:30:52;;;;;;;39.45;23.52;;;;;;;13.06;96.33;101446.81;4985691;28;20771;-88
2022/09/12 07:33:23;;;;;;;41.67;24.02;;;;;;;13.17;96.80;101455.09;5013615;28;20043;-87
2022/09/12 07:35:48;;;;;;;44.13;24.77;;;;;;;13.22;97.91;101446.59;4994393;28;20042;-87
2022/09/12 07:38:15;;;;;;;50.88;25.73;;;;;;;13.33;98.64;101448.50;4994041;28;20044;-87
2022/09/12 07:40:40;;;;;;;43.10;24.60;;;;;;;13.43;97.98;101458.69;5009150;28;20408;-88
2022/09/12 07:43:06;;;;;;;47.58;25.60;;;;;;;13.53;98.66;101456.13;4995699;28;20049;-88
2022/09/12 07:45:31;;;;;;;44.85;25.80;;;;;;;13.57;98.74;101452.16;5027875;28;20037;-88
2022/09/12 07:47:57;;;;;;;39.05;24.83;;;;;;;13.67;98.56;101464.16;4996806;28;20400;-88
2022/09/12 07:50:22;;;;;;;45.17;26.30;;;;;;;13.74;98.01;101459.94;5013220;28;20041;-88
2022/09/12 07:52:47;;;;;;;41.10;24.88;;;;;;;13.84;98.15;101462.84;5009176;28;20034;-88
2022/09/12 07:55:13;;;;;;;45.85;27.27;;;;;;;13.91;98.32;101457.81;5006201;28;20056;-88
2022/09/12 07:57:39;;;;;;;44.58;24.35;;;;;;;14.06;98.25;101466.69;5010317;28;20079;-88
2022/09/12 08:00:05;;;;;;;45.90;24.55;;;;;;;14.17;98.22;101458.50;5026160;28;20068;-89
2022/09/12 08:02:37;;;;;;;41.83;25.25;;;;;;;14.35;98.14;101467.16;5011198;28;20839;-88
2022/09/12 08:05:04;;;;;;;42.40;24.52;;;;;;;14.52;97.86;101458.53;5010796;28;20091;-88
2022/09/12 08:07:29;;;;;;;39.53;25.60;;;;;;;14.69;97.00;101457.19;4994100;28;20171;-88
2022/09/12 08:09:55;;;;;;;38.20;25.02;;;;;;;14.84;96.66;101457.81;5008518;28;20108;-88
2022/09/12 08:12:21;;;;;;;43.58;25.10;;;;;;;14.97;95.92;101453.97;5006253;28;20040;-88
2022/09/12 08:14:47;;;;;;;35.28;22.85;;;;;;;15.15;95.49;101472.63;5011646;28;20063;-88
2022/09/12 08:17:13;;;;;;;38.38;23.70;;;;;;;15.23;95.24;101459.16;4990815;28;20025;-88
2022/09/12 08:19:38;;;;;;;33.45;22.50;;;;;;;15.36;94.18;101459.03;5012278;28;20049;-88
2022/09/12 08:22:04;;;;;;;34.17;22.00;;;;;;;15.50;94.16;101456.00;4995339;28;20127;-88
2022/09/12 08:24:30;;;;;;;36.38;21.55;;;;;;;15.61;93.08;101466.06;5010034;28;20041;-89
2022/09/12 08:26:56;;;;;;;33.03;21.20;;;;;;;15.84;93.35;101466.91;4987824;28;20133;-88
2022/09/12 08:29:21;;;;;;;28.83;20.23;;;;;;;16.08;92.68;101470.31;4975326;28;20088;-88
2022/09/12 08:31:47;;;;;;;30.60;19.52;;;;;;;16.23;90.80;101474.50;4991776;28;20040;-89
2022/09/12 08:34:12;;;;;;;29.65;19.42;;;;;;;16.30;90.00;101467.47;5008626;28;20038;-88
2022/09/12 08:36:38;;;;;;;30.02;19.00;;;;;;;16.31;89.31;101463.69;4992838;28;20037;-88
2022/09/12 08:39:06;;;;;;;28.73;19.55;;;;;;;16.40;89.39;101473.03;4993976;28;20551;-88
2022/09/12 08:41:41;;;;;;;30.67;17.63;;;;;;;16.52;89.08;101479.34;4993082;28;21241;-89
2022/09/12 08:44:37;;;;;;;29.38;18.25;;;;;;;16.56;89.34;101478.06;5031430;28;20037;-89
2022/09/12 08:47:34;;;;;;;30.08;18.20;;;;;;;16.59;89.66;101469.53;5009999;28;20354;-88
2022/09/12 08:50:08;;;;;;;33.40;19.13;;;;;;;16.70;90.05;101471.34;5010576;28;20034;-89
2022/09/12 08:52:57;;;;;;;26.90;17.75;;;;;;;16.87;88.78;101475.38;4997368;28;20037;-89
2022/09/12 08:55:42;;;;;;;26.25;17.85;;;;;;;17.08;88.09;101479.81;4981669;28;20038;-89
2022/09/12 08:58:15;;;;;;;24.98;16.67;;;;;;;17.30;85.80;101473.28;5010012;28;20038;-88
2022/09/12 09:00:54;;;;;;;23.48;15.32;;;;;;;17.40;86.19;101456.78;5011444;28;20037;-89
2022/09/12 09:03:37;;;;;;;24.20;16.40;;;;;;;17.62;85.94;101472.19;4989340;28;20043;-89
2022/09/12 09:06:15;;;;;;;24.00;15.73;;;;;;;17.74;85.45;101467.47;5009803;28;20120;-90
2022/09/12 09:09:03;;;;;;;22.42;15.30;;;;;;;17.89;84.59;101467.91;4992783;28;20066;-88
2022/09/12 09:11:45;;;;;;;26.50;17.13;;;;;;;17.97;85.16;101457.06;4992852;28;20044;-90
2022/09/12 09:14:48;;;;;;;22.07;15.87;;;;;;;17.99;84.68;101447.63;5009932;28;20065;-87
2022/09/12 09:17:33;;;;;;;23.30;14.85;;;;;;;18.17;86.26;101450.53;5009720;28;20048;-89
2022/09/12 09:20:06;;;;;;;18.65;13.60;;;;;;;18.31;83.13;101449.22;5008092;28;20041;-90
2022/09/12 09:22:41;;;;;;;23.17;13.68;;;;;;;18.44;83.61;101443.41;5009723;28;20048;-89
2022/09/12 09:25:32;;;;;;;25.00;15.02;;;;;;;18.65;83.10;101445.97;4992334;28;20040;-90
2022/09/12 09:28:10;;;;;;;20.70;14.00;;;;;;;18.86;82.90;101442.00;4966306;28;20044;-90
2022/09/12 09:30:44;;;;;;;19.73;12.68;;;;;;;19.10;80.39;101443.38;5008962;28;20037;-89
2022/09/12 09:33:19;;;;;;;16.88;12.77;;;;;;;19.59;81.87;101446.75;4991407;28;20052;-90
2022/09/12 09:36:04;;;;;;;17.23;11.85;;;;;;;19.80;78.59;101439.06;5007888;28;20092;-90
2022/09/12 09:38:49;;;;;;;20.33;12.32;;;;;;;20.18;80.20;101441.66;5007160;28;20440;-89
2022/09/12 09:41:42;;;;;;;15.65;11.02;;;;;;;20.83;80.08;101442.19;5025404;28;20045;-89
2022/09/12 09:44:08;;;;;;;15.95;12.05;;;;;;;20.96;75.64;101439.84;5011270;28;20144;-89
2022/09/12 09:46:34;;;;;;;12.27;9.45;;;;;;;21.30;74.29;101426.00;5009127;28;20037;-89
2022/09/12 09:49:04;;;;;;;17.63;10.10;;;;;;;21.45;71.50;101431.81;5028670;28;20112;-89
2022/09/12 09:51:35;;;;;;;12.88;9.25;;;;;;;21.68;70.76;101422.84;5008533;28;20041;-89
2022/09/12 09:54:10;;;;;;;10.77;8.95;;;;;;;21.88;72.66;101429.84;5007476;28;20041;-90
2022/09/12 09:56:41;;;;;;;11.68;9.10;;;;;;;22.21;69.05;101419.69;5025055;28;20052;-89
2022/09/12 09:59:26;;;;;;;12.15;8.98;;;;;;;22.41;71.38;101411.88;5010467;28;20033;-90
2022/09/12 10:02:00;;;;;;;12.50;9.05;;;;;;;22.62;67.98;101411.34;5010067;28;20578;-89
2022/09/12 10:04:30;;;;;;;10.27;8.27;;;;;;;22.88;65.62;101411.06;5008965;28;20125;-90
2022/09/12 10:06:58;;;;;;;10.88;7.55;;;;;;;23.15;64.93;101398.72;5026182;28;20068;-90
2022/09/12 10:09:31;;;;;;;10.82;8.80;;;;;;;23.37;62.49;101406.25;5009569;28;20038;-89
2022/09/12 10:11:58;;;;;;;10.45;8.00;;;;;;;23.34;59.42;101400.19;5008476;28;20034;-89
2022/09/12 10:14:28;;;;;;;9.57;6.95;;;;;;;23.60;62.32;101400.72;5026829;28;20056;-89
2022/09/12 10:16:56;;;;;;;8.85;6.65;;;;;;;23.65;60.11;101394.66;5008495;28;20401;-91
2022/09/12 10:19:31;;;;;;;8.82;6.22;;;;;;;23.87;59.13;101395.72;5011261;28;20086;-90
2022/09/12 10:21:57;;;;;;;9.93;6.88;;;;;;;23.84;58.24;101391.41;5026111;28;20052;-89
2022/09/12 10:24:31;;;;;;;8.57;6.70;;;;;;;23.98;61.65;101388.88;5024398;28;20456;-88
2022/09/12 10:27:07;;;;;;;12.57;7.93;;;;;;;24.02;61.55;101374.41;5025318;28;20033;-90
2022/09/12 10:29:38;;;;;;;10.45;7.50;;;;;;;24.13;58.82;101375.88;5009657;28;20489;-90
2022/09/12 10:32:07;;;;;;;10.17;7.90;;;;;;;24.29;58.02;101378.50;5022019;28;20061;-89
2022/09/12 10:34:41;;;;;;;10.95;7.75;;;;;;;24.39;56.82;101370.81;5028137;28;20037;-89
2022/09/12 10:37:09;;;;;;;9.00;6.82;;;;;;;24.74;58.34;101370.25;4989466;28;20064;-89
2022/09/12 10:39:37;;;;;;;8.55;6.70;;;;;;;24.71;52.78;101365.94;4974264;28;20033;-89
2022/09/12 10:42:04;;;;;;;7.07;5.78;;;;;;;24.76;57.12;101366.25;5007643;28;20833;-90
2022/09/12 10:44:32;;;;;;;10.88;6.43;;;;;;;24.94;54.93;101357.47;5005743;28;20453;-90
2022/09/12 10:46:59;;;;;;;10.77;6.68;;;;;;;25.14;54.59;101357.81;4993778;28;20030;-90
2022/09/12 10:49:30;;;;;;;8.18;5.80;;;;;;;25.41;56.74;101357.09;4978442;28;20044;-89
2022/09/12 10:52:14;;;;;;;6.38;5.25;;;;;;;25.50;53.74;101348.56;5028634;28;20044;-89
2022/09/12 10:54:39;;;;;;;10.10;7.15;;;;;;;25.27;50.92;101334.81;5013627;28;20045;-89
2022/09/12 10:57:13;;;;;;;9.40;5.78;;;;;;;25.50;53.06;101340.22;4995627;28;20045;-88
2022/09/12 10:59:57;;;;;;;14.43;5.70;;;;;;;25.60;54.87;101343.53;5014001;28;20033;-89
2022/09/12 11:02:40;;;;;;;9.02;5.15;;;;;;;25.84;56.99;101329.28;5027252;28;20049;-88
2022/09/12 11:05:11;;;;;;;5.95;4.45;;;;;;;25.95;53.52;101325.94;5010423;28;20046;-88
2022/09/12 11:07:52;;;;;;;6.83;5.00;;;;;;;25.91;54.23;101321.81;4998542;28;20037;-88
2022/09/12 11:10:27;;;;;;;5.30;4.22;;;;;;;26.32;53.08;101321.09;5011741;28;20639;-88
2022/09/12 11:12:58;;;;;;;5.35;4.82;;;;;;;26.38;51.93;101325.00;5024885;28;20044;-89
2022/09/12 11:15:55;;;;;;;7.60;4.32;;;;;;;26.25;50.17;101322.09;5008643;28;20038;-89
2022/09/12 11:18:47;;;;;;;6.40;3.95;;;;;;;26.37;52.99;101317.69;5010351;28;20615;-89
2022/09/12 11:21:13;;;;;;;6.53;4.18;;;;;;;26.41;48.26;101317.09;5012985;28;20038;-89
2022/09/12 11:24:12;;;;;;;5.82;3.80;;;;;;;26.58;51.63;101320.47;5011650;28;20043;-90
2022/09/12 11:27:03;;;;;;;4.45;4.05;;;;;;;26.50;48.28;101316.97;5038797;28;20113;-89
2022/09/12 11:29:51;;;;;;;5.17;4.13;;;;;;;26.48;51.54;101319.94;5013673;28;20136;-89
2022/09/12 11:32:30;;;;;;;4.30;3.90;;;;;;;26.52;49.95;101318.47;5012810;28;20087;-88